Главная страница
METAR-TAF:

METAR-TAF

Аэропорты :

Кюрасао, Нидерландские Антильские острова

широта: 12-12N, долгота: 068-58W, высота над уровнем моря: 9 м

Текущие метеонаблюдения

Эта сводка был подготовлена 26 минут назад, в 03:00 UTC
Ветер 11 Узел от восточный
Температура 27°C
Влажность 84%
Давление 1014 hPa
Видимость 10 км и более
Рассеянная облачность на высоте 2100 фута
небольшие ливневые дожди

METAR: TNCC 190300Z AUTO 09011KT 9999 -SHRA BKN021 27/24 Q1014 TEMPO 08010G26KT 3000 SHRA SCT012CB BKN014TCU

Время: 23:26 (03:26 UTC)

Прогноз

Эта сводка был подготовлена 5 часа и 56 минут назад, в 21:30 UTC
Прогноз действительный с 19-го 00 UTC до 19-го 24 UTC
Ветер 12 Узел от восточный
Видимость 10 км и более
Отдельные облака на высоте 1800 фута
Вероятность 30% :
временами
С 19-го 00 UTC до 19-го 16 UTC
Видимость: 7000 м
Рассеянная облачность на высоте 1400 фута
небольшие ливневые дожди

TAF: TNCC 182130Z 1900/1924 08012KT 9999 SCT018 PROB30 TEMPO 1900/1916 7000 -SHRA BKN014

Метеонаблюдения и прогнозы для более 4000 аэропортов (сводки METAR и TAF).

Имеющиеся станции представлены на карте желтыми и красными точками.

Чтобы увидеть название станции, наведите на нее мышь.

Затем щелкните, чтобы увидеть метеонаблюдения и метеопрогнозы.

Управление картой: чтобы увеличить масштаб, щелкните зеленые кнопки с черным крестиком; чтобы уменьшить масштаб, щелкните зеленую кнопку с тире; для просмотра соседних карт щелкайте зеленые стрелки.


METAR-TAF: